Aérodrome :
LOGIN :

S'inscrire | Disclaimer

   EN    FR    IT 

 










Légende :    VFR   VFR Marginal   IFR   IFR Intensif   IFR Très Intensif
Visi : 
Plafond : 
>= 8 km
>= 3000ft
5 à 8 km
1000 à 3000 ft
1500m à 5 km
500 à 1000 ft
800 à 1500m
200 à 500 ft
< 800m
< 200 ft
Symboles :   Orages  Brouillard  Fortes neiges  Fortes précipitations  Vent > 20 kt
SIGMETs :   Divers  Orages  Givrage  Turbulence  Onde Orograph.  Cendres Volcan.






- Altitude de l'aérodrome : 464 ft
- Code IATA : EVX


LFOE - Evreux

DERNIER METAR :
  • 271430Z AUTO 31020G35KT 9999 BKN026 BKN032 OVC038 06/02 Q1003 NOSIG

METARs EXPIRÉS :
  • 271400Z AUTO 31022G36KT 9999 BKN022 OVC027 07/03 Q1002 NOSIG
  • 271330Z AUTO 31019G30KT 280V340 9999 OVC021 06/03 Q1000 NOSIG
  • 271300Z AUTO 31021G39KT 9999 BKN017 OVC023 07/03 Q0998 NOSIG
  • 271230Z AUTO 31025G38KT 9999 OVC019 06/03 Q0997 NOSIG
  • 271200Z AUTO 32027G43KT 9999 FEW008 BKN020 OVC025 07/04 Q0995 NOSIG

TAF TAF LFOE
Valide du 27 à 15h jusqu'au 28 à 15h UTC


271400Z 2715/2815 32020G35KT 9999 BKN025
BECMG 2719/2721 24010KT
BECMG 2801/2803 18008KT
BECMG 2807/2808 18015G25KT
TEMPO 2808/2811 4000 -RA BKN013
BECMG 2811/2812 OVC007
PROB30
TEMPO 2814/2815 3000 -DZ BKN004 OVC007



MET'MAP, la Météo Aéronautique d'un coup d'oeil ! - Copyright ORBIFLY Décembre 2007 - Disclaimer

ORBIFLY MET'MAP TEAM :

Programmation & Développement : Alexandra Zaïnal
Sur une idée originale de : Baudouin d'Aumeries
Assistance à la programmation : Marc-Olivier Méhu
Soutien technique & logistique : Manuel Goepfert

Contact : metmap@orbifly.com




SOURCES & CREDITS :

   NOAA